Tuesday, September 19, 2017, 7:47 AM EDT
Back to Local

KAKR, Akron Fulton International

Location: Akron, OH, United States Lat: 41.033
Local Time: 7:47 AM EDT (11:47 GMT) Lon: -81.467
Time Zone: US/Eastern Elev: 1069 ft

Show me the last for .
Show Decoded

2017-09-19 06:54 METAR KAKR 191054Z AUTO 00000KT 5SM BR CLR 17/16 A3001 RMK AO2 SLP156 T01720156
                 =
2017-09-19 05:54 METAR KAKR 190954Z AUTO 00000KT 5SM BR CLR 17/15 A3001 RMK AO2 SLP153 T01670150
                 =
2017-09-19 04:54 METAR KAKR 190854Z AUTO 00000KT 7SM CLR 17/16 A3001 RMK AO2 SLP155 T01720156
                 55005 =
2017-09-19 03:54 METAR KAKR 190754Z AUTO 00000KT 8SM CLR 17/16 A3001 RMK AO2 SLP154 T01720156 =
2017-09-19 02:54 METAR KAKR 190654Z AUTO 00000KT 7SM CLR 17/16 A3002 RMK AO2 SLP156 T01720156 =
2017-09-19 01:54 METAR KAKR 190554Z AUTO 00000KT 8SM CLR 18/17 A3003 RMK AO2 SLP161 T01830167
                 10244 20172 56008 =
2017-09-19 00:54 METAR KAKR 190454Z AUTO 00000KT 6SM BR CLR 18/16 A3004 RMK AO2 SLP163 T01780161
                 403000150 =
2017-09-18 23:54 METAR KAKR 190354Z AUTO 00000KT 10SM CLR 19/16 A3005 RMK AO2 SLP167 T01890161 =
2017-09-18 22:54 METAR KAKR 190254Z AUTO 00000KT 10SM CLR 21/17 A3005 RMK AO2 SLP169 T02060167
                 53006 =
2017-09-18 21:54 METAR KAKR 190154Z AUTO 00000KT 10SM CLR 22/17 A3004 RMK AO2 SLP164 T02220167 =
2017-09-18 20:54 METAR KAKR 190054Z AUTO 00000KT 10SM CLR 24/17 A3005 RMK AO2 SLP167 T02390167 =
2017-09-18 19:54 METAR KAKR 182354Z AUTO 00000KT 7SM CLR 24/17 A3003 RMK AO2 SLP164 T02440167
                 10300 20239 55001 =
2017-09-18 18:54 METAR KAKR 182254Z AUTO 21003KT 10SM CLR 27/17 A3003 RMK AO2 SLP163 T02670167 =
2017-09-18 17:54 METAR KAKR 182154Z AUTO 20007KT 10SM CLR 28/14 A3003 RMK AO2 SLP163 T02830144 =
2017-09-18 16:54 METAR KAKR 182054Z AUTO 25004KT 10SM CLR 29/15 A3004 RMK AO2 SLP163 T02890150
                 58012 =
2017-09-18 15:54 METAR KAKR 181954Z AUTO 00000KT 10SM CLR 29/15 A3005 RMK AO2 SLP169 T02890150 =
2017-09-18 14:54 METAR KAKR 181854Z AUTO 13004KT 10SM CLR 28/16 A3006 RMK AO2 SLP172 T02830156 =
2017-09-18 13:54 METAR KAKR 181754Z AUTO 19005KT 10SM FEW060 28/15 A3007 RMK AO2 SLP176 T02780150
                 10289 20161 58014 $ =
2017-09-18 12:54 METAR KAKR 181654Z AUTO VRB06KT 10SM FEW042 28/16 A3009 RMK AO2 SLP183 T02830156
                 $ =
2017-09-18 11:54 METAR KAKR 181554Z AUTO 23008KT 10SM CLR 27/17 A3010 RMK AO2 SLP186 T02720167 $
                 =
2017-09-18 10:54 METAR KAKR 181454Z AUTO 20005KT 10SM CLR 26/17 A3011 RMK AO2 SLP190 T02560172
                 53004 $ =
2017-09-18 09:54 METAR KAKR 181354Z AUTO 26003KT 10SM CLR 24/17 A3011 RMK AO2 SLP190 T02390172 $
                 =
2017-09-18 08:54 METAR KAKR 181254Z AUTO 00000KT 10SM CLR 21/17 A3010 RMK AO2 SLP188 T02060172 $
                 =
2017-09-18 07:54 METAR KAKR 181154Z AUTO 00000KT 6SM BR CLR 16/15 A3010 RMK AO2 SLP188 T01610150
                 10189 20150 53007 $ =

Support USWX by starting your Amazon purchase here.